createdAt,value
2018-02-06T00:02:15.707Z,16.98
2018-02-06T00:04:44.307Z,16.92
2018-02-06T00:07:13.822Z,16.52
2018-02-06T00:09:42.757Z,17.55
2018-02-06T00:12:11.022Z,17.90
2018-02-06T00:14:39.341Z,17.27
2018-02-06T00:17:07.718Z,17.02
2018-02-06T00:19:35.961Z,19.98
2018-02-06T00:22:04.113Z,17.48
2018-02-06T00:24:32.266Z,16.85
2018-02-06T00:27:00.507Z,16.48
2018-02-06T00:29:28.810Z,16.80
2018-02-06T00:31:56.990Z,16.77
2018-02-06T00:34:25.283Z,15.80
2018-02-06T00:36:54.450Z,15.90
2018-02-06T00:39:22.703Z,17.23
2018-02-06T00:41:50.790Z,16.42
2018-02-06T00:44:19.197Z,18.95
2018-02-06T00:46:47.489Z,16.95
2018-02-06T00:49:15.645Z,17.40
2018-02-06T00:51:43.872Z,16.90
2018-02-06T00:54:12.901Z,17.35
2018-02-06T00:56:41.105Z,16.60
2018-02-06T00:59:09.593Z,18.48
2018-02-06T01:01:37.793Z,15.77
2018-02-06T01:04:05.967Z,17.65
2018-02-06T01:06:34.073Z,17.80
2018-02-06T01:09:02.159Z,18.92
2018-02-06T01:11:30.254Z,18.10
2018-02-06T01:13:58.540Z,18.65
2018-02-06T01:16:26.640Z,17.98
2018-02-06T01:18:54.643Z,15.90
2018-02-06T01:21:22.835Z,17.45
2018-02-06T01:23:51.037Z,17.65
2018-02-06T01:26:19.307Z,18.23
2018-02-06T01:28:47.497Z,18.02
2018-02-06T01:31:15.676Z,18.17
2018-02-06T01:33:44.012Z,17.30
2018-02-06T01:36:12.207Z,18.00
2018-02-06T01:38:40.500Z,15.43
2018-02-06T01:41:08.680Z,16.50
2018-02-06T01:43:36.878Z,16.62
2018-02-06T01:46:04.977Z,16.62
2018-02-06T01:48:33.894Z,18.08
2018-02-06T01:51:02.068Z,17.25
2018-02-06T01:53:30.368Z,16.90
2018-02-06T01:55:58.560Z,18.73
2018-02-06T01:58:26.756Z,16.80
2018-02-06T02:00:54.955Z,17.83
2018-02-06T02:03:22.954Z,17.52
2018-02-06T02:05:51.243Z,18.25
2018-02-06T02:08:19.554Z,18.15
2018-02-06T02:10:47.978Z,17.33
2018-02-06T02:13:16.119Z,16.25
2018-02-06T02:15:44.493Z,18.35
2018-02-06T02:18:13.857Z,18.58
2018-02-06T02:20:42.447Z,17.00
2018-02-06T02:23:10.641Z,17.98
2018-02-06T02:25:38.851Z,18.15
2018-02-06T02:28:07.036Z,17.42
2018-02-06T02:30:35.221Z,18.27
2018-02-06T02:33:03.431Z,18.27
2018-02-06T02:35:31.613Z,16.55
2018-02-06T02:37:59.921Z,19.52
2018-02-06T02:40:28.137Z,18.50
2018-02-06T04:38:55.646Z,18.30
2018-02-06T04:41:23.956Z,14.98
2018-02-06T04:43:52.108Z,17.33
2018-02-06T04:46:20.245Z,14.77
2018-02-06T04:48:48.383Z,14.75
2018-02-06T04:51:16.685Z,16.08
2018-02-06T04:53:44.887Z,17.58
2018-02-06T04:56:13.098Z,17.90
2018-02-06T04:58:41.256Z,17.25
2018-02-06T05:01:09.392Z,17.70
2018-02-06T05:03:37.664Z,17.80
2018-02-06T05:06:05.956Z,17.65
2018-02-06T05:08:34.149Z,16.23
2018-02-06T05:11:02.345Z,17.73
2018-02-06T05:13:30.334Z,17.27
2018-02-06T05:15:58.737Z,17.98
2018-02-06T05:18:27.155Z,16.75
2018-02-06T05:20:55.547Z,17.05
2018-02-06T05:23:23.818Z,17.45
2018-02-06T05:25:52.035Z,15.05
2018-02-06T05:28:20.205Z,16.35
2018-02-06T05:30:48.519Z,15.60
2018-02-06T05:33:16.809Z,17.00
2018-02-06T05:35:45.102Z,17.83
2018-02-06T05:38:13.290Z,16.33
2018-02-06T05:40:41.658Z,17.30
2018-02-06T05:43:09.792Z,15.63
2018-02-06T05:45:38.038Z,15.32
2018-02-06T05:48:06.191Z,15.77
2018-02-06T05:50:34.374Z,15.30
2018-02-06T05:53:02.601Z,16.00
2018-02-06T05:55:30.852Z,16.73
2018-02-06T05:57:59.269Z,14.82
2018-02-06T06:00:27.454Z,15.43
2018-02-06T06:02:56.482Z,15.98
2018-02-06T06:05:24.667Z,16.55
2018-02-06T06:07:52.854Z,18.02
2018-02-06T06:10:20.958Z,15.88
2018-02-06T06:12:49.329Z,23.12
2018-02-06T06:15:17.346Z,15.65
2018-02-06T06:17:45.534Z,16.08
2018-02-06T06:20:13.625Z,16.27
2018-02-06T06:22:41.815Z,14.32
2018-02-06T06:25:10.007Z,14.68
2018-02-06T06:27:38.314Z,16.48
2018-02-06T06:30:06.278Z,17.50
2018-02-06T06:32:34.604Z,16.45
2018-02-06T06:35:02.927Z,16.17
2018-02-06T06:37:31.156Z,15.50
2018-02-06T06:39:59.498Z,15.30
2018-02-06T06:42:27.979Z,15.00
2018-02-06T06:44:56.116Z,15.75
2018-02-06T06:47:24.216Z,14.70
2018-02-06T06:49:52.479Z,15.60
2018-02-06T06:52:20.770Z,16.60
2018-02-06T06:54:48.858Z,16.50
2018-02-06T06:57:17.058Z,15.70
2018-02-06T06:59:45.158Z,15.13
2018-02-06T07:02:13.453Z,16.00
2018-02-06T07:04:41.550Z,15.68
2018-02-06T07:07:09.646Z,16.17
2018-02-06T07:09:37.719Z,16.00
2018-02-06T07:12:05.916Z,16.35
2018-02-06T07:14:34.219Z,15.02
2018-02-06T07:17:02.717Z,16.23
2018-02-06T07:19:30.917Z,16.25
2018-02-06T07:21:59.415Z,14.87
2018-02-06T07:24:27.673Z,15.40
2018-02-06T07:26:56.006Z,15.63
2018-02-06T07:29:24.407Z,14.80
2018-02-06T07:31:52.692Z,15.50
2018-02-06T07:34:20.790Z,15.95
2018-02-06T07:36:49.083Z,14.55
2018-02-06T07:39:17.289Z,16.00
2018-02-06T07:41:45.465Z,16.08
2018-02-06T07:44:13.574Z,16.20
2018-02-06T07:46:41.759Z,16.17
2018-02-06T07:49:09.965Z,17.00
2018-02-06T07:51:38.059Z,18.60
2018-02-06T07:54:06.361Z,17.25
2018-02-06T07:56:34.738Z,15.30
2018-02-06T07:59:03.057Z,13.98
2018-02-06T08:01:31.239Z,13.27
2018-02-06T08:03:59.525Z,13.98
2018-02-06T08:06:27.830Z,14.40
2018-02-06T08:08:56.897Z,16.48
2018-02-06T08:11:25.047Z,16.85
2018-02-06T08:13:53.330Z,16.48
2018-02-06T08:16:21.424Z,16.15
2018-02-06T08:18:49.616Z,15.55
2018-02-06T08:21:17.800Z,14.93
2018-02-06T08:23:46.005Z,17.58
2018-02-06T08:26:14.096Z,16.77
2018-02-06T08:28:42.332Z,17.80
2018-02-06T08:31:10.381Z,16.58
2018-02-06T08:33:38.609Z,15.48
2018-02-06T08:36:06.979Z,14.25
2018-02-06T08:38:35.387Z,14.23
2018-02-06T08:41:03.476Z,13.65
2018-02-06T08:43:31.873Z,11.50
2018-02-06T08:46:00.175Z,14.35
2018-02-06T08:48:28.467Z,13.93
2018-02-06T08:50:56.648Z,13.62
2018-02-06T08:53:24.940Z,13.65
2018-02-06T08:55:52.979Z,14.02
2018-02-06T08:58:21.232Z,14.18
2018-02-06T09:00:49.325Z,13.35
2018-02-06T09:03:17.530Z,13.98
2018-02-06T09:05:45.534Z,13.77
2018-02-06T09:08:13.817Z,14.48
2018-02-06T09:10:41.908Z,14.32
2018-02-06T09:13:10.192Z,13.57
2018-02-06T09:15:38.398Z,14.55
2018-02-06T09:18:06.798Z,13.75
2018-02-06T09:20:35.097Z,12.85
2018-02-06T09:23:03.195Z,13.95
2018-02-06T09:25:31.116Z,14.63
2018-02-06T09:27:59.259Z,13.70
2018-02-06T09:30:27.460Z,14.38
2018-02-06T09:32:55.659Z,13.70
2018-02-06T09:35:23.739Z,13.75
2018-02-06T09:37:52.039Z,14.50
2018-02-06T09:40:20.139Z,14.50
2018-02-06T09:42:48.339Z,14.77
2018-02-06T09:45:16.519Z,14.70
2018-02-06T09:47:44.730Z,13.18
2018-02-06T09:50:13.020Z,12.70
2018-02-06T09:52:41.203Z,14.45
2018-02-06T09:55:09.304Z,15.82
2018-02-06T09:57:37.483Z,13.88
2018-02-06T10:00:05.792Z,15.25
2018-02-06T10:02:33.881Z,15.23
2018-02-06T10:05:03.028Z,15.88
2018-02-06T10:07:31.161Z,14.63
2018-02-06T10:09:59.283Z,14.30
2018-02-06T10:12:27.483Z,16.45
2018-02-06T10:14:55.684Z,17.58
2018-02-06T10:17:25.505Z,17.17
2018-02-06T10:19:53.599Z,15.38
2018-02-06T10:22:21.684Z,16.58
2018-02-06T10:24:49.874Z,16.35
2018-02-06T10:27:18.065Z,15.88
2018-02-06T10:29:46.158Z,16.30
2018-02-06T10:32:14.285Z,13.82
2018-02-06T10:34:42.478Z,13.85
2018-02-06T10:37:10.538Z,13.13
2018-02-06T10:39:38.842Z,13.77
2018-02-06T10:42:07.142Z,14.07
2018-02-06T10:44:35.316Z,15.90
2018-02-06T10:47:03.456Z,13.98
2018-02-06T10:49:31.836Z,14.07
2018-02-06T10:52:00.936Z,14.87
2018-02-06T10:54:29.342Z,17.05
2018-02-06T10:56:57.538Z,16.15
2018-02-06T10:59:25.941Z,18.35
2018-02-06T11:01:53.979Z,16.62
2018-02-06T11:04:22.944Z,17.37
2018-02-06T11:06:51.079Z,17.98
2018-02-06T11:09:19.476Z,16.27
2018-02-06T11:11:47.740Z,16.65
2018-02-06T11:14:16.229Z,16.90
2018-02-06T11:16:44.424Z,16.35
2018-02-06T11:19:12.655Z,17.08
2018-02-06T11:21:40.915Z,16.80
2018-02-06T11:24:09.114Z,17.25
2018-02-06T11:26:37.420Z,17.17
2018-02-06T11:29:05.837Z,15.73
2018-02-06T11:31:34.034Z,16.10
2018-02-06T11:34:02.424Z,17.42
2018-02-06T11:36:30.656Z,16.20
2018-02-06T11:38:58.898Z,15.60
2018-02-06T11:41:26.969Z,18.10
2018-02-06T11:43:55.374Z,17.85
2018-02-06T11:46:23.780Z,15.98
2018-02-06T11:48:52.040Z,17.27
2018-02-06T11:51:20.304Z,17.62
2018-02-06T11:53:48.560Z,16.80
2018-02-06T11:56:16.757Z,17.75
2018-02-06T11:58:44.955Z,16.23
2018-02-06T12:01:13.859Z,15.35
2018-02-06T12:03:41.957Z,14.23
2018-02-06T12:06:09.982Z,15.00
2018-02-06T12:08:38.203Z,13.80
2018-02-06T12:11:06.429Z,15.82
2018-02-06T12:13:34.641Z,14.85
2018-02-06T12:16:02.933Z,15.77
2018-02-06T12:18:31.026Z,17.00
2018-02-06T12:20:59.486Z,17.50
2018-02-06T12:23:28.025Z,18.90
2018-02-06T12:25:56.322Z,17.48
2018-02-06T12:28:24.470Z,15.45
2018-02-06T12:30:52.707Z,15.95
2018-02-06T12:33:20.875Z,14.43
2018-02-06T12:35:49.201Z,14.18
2018-02-06T12:38:17.178Z,13.13
2018-02-06T12:40:45.578Z,10.32
2018-02-06T12:43:13.683Z,11.90
2018-02-06T12:45:42.061Z,9.35
2018-02-06T12:48:10.397Z,9.80
2018-02-06T12:50:38.567Z,10.80
2018-02-06T12:53:06.693Z,9.70
2018-02-06T12:55:34.911Z,11.90
2018-02-06T12:58:03.082Z,10.55
2018-02-06T13:00:31.273Z,9.05
2018-02-06T13:02:59.413Z,9.30
2018-02-06T13:05:27.620Z,9.98
2018-02-06T13:07:55.679Z,9.48
2018-02-06T13:10:24.022Z,9.63
2018-02-06T13:12:52.225Z,10.85
2018-02-06T13:15:20.413Z,10.23
2018-02-06T13:17:48.503Z,10.07
2018-02-06T13:20:16.581Z,9.13
2018-02-06T13:22:45.402Z,9.05
2018-02-06T13:25:13.596Z,10.02
2018-02-06T13:27:41.776Z,8.65
2018-02-06T13:30:10.018Z,8.93
2018-02-06T13:32:38.257Z,9.35
2018-02-06T13:35:06.576Z,8.75
2018-02-06T13:37:35.516Z,9.25
2018-02-06T13:40:03.674Z,9.30
2018-02-06T13:42:31.840Z,9.32
2018-02-06T13:45:00.065Z,10.85
2018-02-06T13:47:28.308Z,9.70
2018-02-06T13:49:56.559Z,10.32
2018-02-06T13:52:24.676Z,10.18
2018-02-06T13:54:52.856Z,10.90
2018-02-06T13:57:21.136Z,9.23
2018-02-06T13:59:49.557Z,10.37
2018-02-06T14:02:17.698Z,10.02
2018-02-06T14:04:45.734Z,10.00
2018-02-06T14:07:13.864Z,10.85
2018-02-06T14:09:42.156Z,10.90
2018-02-06T14:12:10.301Z,9.07
2018-02-06T14:14:38.500Z,10.15
2018-02-06T14:17:06.803Z,10.75
2018-02-06T14:19:34.935Z,10.02
2018-02-06T14:22:03.096Z,10.07
2018-02-06T14:24:31.296Z,10.32
2018-02-06T14:26:59.483Z,9.93
2018-02-06T14:29:28.594Z,9.95
2018-02-06T14:31:56.698Z,10.02
2018-02-06T14:34:24.878Z,9.93
2018-02-06T14:36:53.076Z,10.95
2018-02-06T14:39:21.318Z,9.75
2018-02-06T14:41:50.674Z,9.10
2018-02-06T14:44:19.023Z,9.90
2018-02-06T14:46:47.219Z,8.75
2018-02-06T14:49:15.577Z,10.85
2018-02-06T14:51:43.758Z,11.75
2018-02-06T14:54:11.967Z,9.73
2018-02-06T14:56:40.055Z,10.93
2018-02-06T14:59:08.203Z,10.50
2018-02-06T15:01:36.335Z,10.05
2018-02-06T15:04:04.529Z,8.63
2018-02-06T15:06:32.722Z,9.50
2018-02-06T15:09:00.936Z,11.10
2018-02-06T15:11:29.072Z,9.00
2018-02-06T15:13:57.219Z,9.50
2018-02-06T15:16:25.414Z,10.48
2018-02-06T15:18:53.694Z,9.23
2018-02-06T15:21:21.799Z,9.35
2018-02-06T15:23:50.099Z,8.60
2018-02-06T15:26:18.587Z,8.77
2018-02-06T15:28:46.696Z,9.90
2018-02-06T15:31:14.819Z,10.15
2018-02-06T15:33:42.839Z,9.80
2018-02-06T15:36:11.065Z,9.52
2018-02-06T15:38:39.369Z,9.88
2018-02-06T15:41:07.569Z,9.35
2018-02-06T15:43:35.749Z,10.18
2018-02-06T15:46:03.957Z,11.05
2018-02-06T15:48:32.037Z,9.90
2018-02-06T15:51:00.330Z,9.10
2018-02-06T15:53:28.642Z,9.70
2018-02-06T15:55:56.937Z,9.57
2018-02-06T15:58:25.215Z,10.25
2018-02-06T16:00:53.523Z,9.85
2018-02-06T16:03:21.915Z,8.65
2018-02-06T16:05:50.214Z,11.50
2018-02-06T16:08:18.316Z,8.52
2018-02-06T16:10:46.611Z,10.70
2018-02-06T16:13:14.730Z,9.30
2018-02-06T16:15:42.928Z,9.18
2018-02-06T16:18:11.291Z,9.82
2018-02-06T16:20:39.476Z,8.65
2018-02-06T16:23:07.676Z,10.18
2018-02-06T16:25:35.876Z,8.95
2018-02-06T16:28:04.060Z,9.68
2018-02-06T16:30:32.166Z,9.20
2018-02-06T16:33:00.567Z,9.35
2018-02-06T16:35:28.867Z,8.85
2018-02-06T16:37:57.156Z,10.48
2018-02-06T16:40:25.460Z,10.30
2018-02-06T16:42:53.840Z,10.48
2018-02-06T16:45:22.042Z,9.68
2018-02-06T16:47:50.339Z,10.73
2018-02-06T16:50:18.547Z,9.65
2018-02-06T16:52:46.718Z,9.90
2018-02-06T16:55:14.824Z,12.23
2018-02-06T16:57:42.844Z,10.65
2018-02-06T17:00:10.904Z,9.45
2018-02-06T17:02:39.206Z,10.63
2018-02-06T17:05:07.297Z,9.02
2018-02-06T17:07:35.389Z,10.10
2018-02-06T17:10:03.571Z,10.02
2018-02-06T17:12:31.667Z,11.30
2018-02-06T17:14:59.998Z,9.98
2018-02-06T17:17:28.059Z,10.60
2018-02-06T17:19:56.140Z,9.82
2018-02-06T17:22:24.239Z,10.38
2018-02-06T17:24:52.317Z,10.10
2018-02-06T17:27:20.419Z,9.30
2018-02-06T17:29:48.520Z,11.05
2018-02-06T17:32:16.708Z,9.70
2018-02-06T17:34:44.801Z,11.85
2018-02-06T17:37:12.900Z,10.65
2018-02-06T17:39:40.980Z,11.02
2018-02-06T17:42:08.981Z,10.07
2018-02-06T17:44:36.921Z,8.88
2018-02-06T17:47:05.362Z,9.50
2018-02-06T17:49:33.461Z,10.50
2018-02-06T17:52:01.662Z,10.57
2018-02-06T17:54:29.741Z,10.68
2018-02-06T17:56:57.867Z,9.38
2018-02-06T17:59:26.042Z,10.10
2018-02-06T18:01:54.223Z,10.68
2018-02-06T18:04:22.434Z,10.77
2018-02-06T18:06:50.603Z,10.80
2018-02-06T18:09:18.707Z,12.93
2018-02-06T18:11:46.797Z,13.18
2018-02-06T18:14:15.002Z,12.52
2018-02-06T18:16:43.092Z,15.55
2018-02-06T18:19:11.292Z,21.90
2018-02-06T18:21:39.485Z,37.70
2018-02-06T18:24:07.665Z,15.90
2018-02-06T18:26:35.793Z,13.00
2018-02-06T18:29:03.963Z,13.55
2018-02-06T18:31:32.173Z,13.35
2018-02-06T18:34:00.344Z,14.52
2018-02-06T18:36:28.544Z,14.70
2018-02-06T18:38:56.623Z,13.25
2018-02-06T18:41:24.824Z,18.42
2018-02-06T18:43:53.025Z,15.88
2018-02-06T18:46:21.224Z,15.23
2018-02-06T18:48:49.403Z,14.63
2018-02-06T18:51:17.503Z,17.90
2018-02-06T18:53:45.583Z,13.20
2018-02-06T18:56:13.784Z,15.23
2018-02-06T18:58:41.984Z,14.25
2018-02-06T19:01:10.063Z,14.10
2018-02-06T19:03:39.503Z,15.65
2018-02-06T19:06:07.695Z,22.10
2018-02-06T19:08:35.832Z,21.55
2018-02-06T19:11:03.866Z,20.45
2018-02-06T19:13:32.064Z,16.95
2018-02-06T19:16:00.167Z,15.45
2018-02-06T19:18:28.253Z,10.93
2018-02-06T19:20:56.347Z,17.05
2018-02-06T19:23:24.445Z,15.50
2018-02-06T19:25:52.625Z,14.77
2018-02-06T19:28:20.833Z,14.02
2018-02-06T19:30:49.018Z,13.48
2018-02-06T19:33:17.115Z,14.70
2018-02-06T19:35:45.295Z,18.70
2018-02-06T19:38:13.596Z,17.90
2018-02-06T19:40:41.695Z,16.85
2018-02-06T19:43:09.989Z,20.52
2018-02-06T19:45:38.089Z,20.50
2018-02-06T19:48:06.169Z,18.58
2018-02-06T19:50:34.369Z,21.48
2018-02-06T19:53:02.470Z,22.23
2018-02-06T19:55:30.511Z,19.70
2018-02-06T19:57:58.749Z,17.75
2018-02-06T20:00:26.850Z,17.48
2018-02-06T20:02:55.252Z,16.08
2018-02-06T20:05:23.328Z,15.13
2018-02-06T20:07:51.529Z,16.00
2018-02-06T20:10:19.629Z,15.70
2018-02-06T20:12:47.812Z,15.02
2018-02-06T20:15:16.209Z,16.02
2018-02-06T20:17:44.408Z,16.33
2018-02-06T20:20:12.390Z,14.50
2018-02-06T20:22:40.588Z,14.20
2018-02-06T20:25:08.788Z,15.77
2018-02-06T20:27:36.888Z,14.55
2018-02-06T20:30:04.970Z,15.70
2018-02-06T20:32:33.170Z,13.95
2018-02-06T20:35:01.463Z,16.85
2018-02-06T20:37:29.757Z,15.82
2018-02-06T20:39:57.806Z,14.48
2018-02-06T20:42:26.039Z,15.15
2018-02-06T20:44:54.137Z,15.35
2018-02-06T20:47:22.338Z,15.52
2018-02-06T20:49:50.429Z,16.05
2018-02-06T20:52:18.524Z,16.25
2018-02-06T20:54:46.630Z,16.33
2018-02-06T20:57:14.849Z,16.87
2018-02-06T20:59:43.210Z,14.70
2018-02-06T21:02:11.497Z,15.35
2018-02-06T21:04:40.108Z,16.05
2018-02-06T21:07:08.199Z,13.95
2018-02-06T21:09:36.379Z,21.17
2018-02-06T21:12:04.479Z,17.70
2018-02-06T21:14:32.581Z,14.05
2018-02-06T21:17:00.718Z,16.45
2018-02-06T21:19:28.860Z,16.65
2018-02-06T21:21:56.979Z,15.55
2018-02-06T21:24:25.342Z,16.40
2018-02-06T21:26:53.436Z,17.10
2018-02-06T21:29:21.655Z,16.45
2018-02-06T21:31:49.861Z,15.82
2018-02-06T21:34:18.021Z,17.30
2018-02-06T21:36:46.208Z,17.45
2018-02-06T21:39:14.510Z,17.60
2018-02-06T21:41:42.762Z,19.60
2018-02-06T21:44:10.995Z,18.10
2018-02-06T21:46:39.194Z,18.40
2018-02-06T21:49:07.395Z,18.35
2018-02-06T21:51:35.595Z,19.35
2018-02-06T21:54:03.779Z,19.33
2018-02-06T21:56:31.907Z,16.95
2018-02-06T21:58:59.957Z,16.08
2018-02-06T22:01:28.059Z,13.98
2018-02-06T22:03:56.266Z,14.38
2018-02-06T22:06:24.286Z,16.12
2018-02-06T22:08:52.376Z,15.77
2018-02-06T22:11:20.666Z,14.68
2018-02-06T22:13:48.930Z,17.52
2018-02-06T22:16:17.115Z,16.40
2018-02-06T22:18:45.306Z,17.67
2018-02-06T22:21:13.301Z,17.60
2018-02-06T22:23:41.512Z,15.73
2018-02-06T22:26:09.699Z,17.15
2018-02-06T22:28:37.898Z,14.85
2018-02-06T22:31:06.016Z,12.93
2018-02-06T22:33:34.387Z,12.05
2018-02-06T22:36:02.485Z,13.85
2018-02-06T22:38:30.663Z,14.65
2018-02-06T22:40:59.358Z,14.55
2018-02-06T22:43:27.567Z,15.00
2018-02-06T22:45:55.764Z,14.35
2018-02-06T22:48:23.872Z,13.70
2018-02-06T22:50:51.879Z,15.00
2018-02-06T22:53:20.051Z,13.85
2018-02-06T22:55:48.135Z,15.32
2018-02-06T22:58:16.372Z,14.93
2018-02-06T23:00:44.730Z,17.12
2018-02-06T23:03:13.246Z,17.92
2018-02-06T23:05:41.384Z,17.80
2018-02-06T23:08:09.828Z,16.55
2018-02-06T23:10:38.218Z,16.45
2018-02-06T23:13:06.605Z,14.77
2018-02-06T23:15:34.710Z,16.58
2018-02-06T23:18:04.032Z,15.07
2018-02-06T23:20:32.157Z,14.57
2018-02-06T23:23:00.331Z,14.23
2018-02-06T23:25:28.538Z,15.27
2018-02-06T23:27:56.576Z,13.62
2018-02-06T23:30:24.790Z,15.13
2018-02-06T23:32:53.130Z,14.55
2018-02-06T23:35:21.481Z,15.40
2018-02-06T23:37:49.634Z,14.85
2018-02-06T23:40:17.935Z,16.25
2018-02-06T23:42:46.289Z,15.07
2018-02-06T23:45:14.506Z,13.98
2018-02-06T23:47:42.875Z,15.48
2018-02-06T23:50:11.277Z,15.82
2018-02-06T23:52:39.666Z,14.10
2018-02-06T23:55:08.565Z,14.85
2018-02-06T23:57:36.757Z,15.93
